SCIE/CCP METAR and TAF weather

Enter ICAO airport designator
Station Type Date Time Source
SCIE METAR 2019/12/14 17:00 UTC NOAA

SCIE 141700Z 23017KT CAVOK 19/09 Q1018


Station Type Date Time Source
SCIE Decoded METAR 2019/12/14 17:00 UTC NOAA

Concepcion, Chile (SCIE) 36-46S 073-03W
Dec 14, 2019 - 12:00 PM EST / 2019.12.14 1700 UTC
Wind: from the SW (230 degrees) at 20 MPH (17 KT):0
Visibility: greater than 7 mile(s):0
Temperature: 66 F (19 C)
Dew Point: 48 F (9 C)
Relative Humidity: 52%
Pressure (altimeter): 30.06 in. Hg (1018 hPa)
ob: SCIE 141700Z 23017KT CAVOK 19/09 Q1018
cycle: 17

Station Type Date Time Source
SCIE TAF 2019/12/14 18:03 UTC NOAA

TAF TAF SCIE 141616Z 1418/1518 23015KT CAVOK TX21/1418Z TN10/1511Z
TEMPO 1418/1500 24020G30KT
BECMG 1500/1502 20006KT
BECMG 1515/1517 23018KT

Example: see airport list